Time;durP1;ratioP1;P1;durP2;ratioP2;P2;SDS_P1;SDS_P2;PMS_P1;PMS_P2;Temp;Humidity;BMP_temperature;BMP_pressure;BME280_temperature;BME280_humidity;BME280_pressure;Samples;Min_cycle;Max_cycle;Signal;HPM_P1;HPM_P2
2023/05/10 00:02:20;;;;;;;24.02;15.07;;;;;;;12.52;100.00;100886.34;6247444;22;20100;-79
2023/05/10 00:04:47;;;;;;;22.20;15.23;;;;;;;12.52;100.00;100887.06;6247783;22;20017;-79
2023/05/10 00:07:14;;;;;;;24.20;16.58;;;;;;;12.51;100.00;100882.19;6248575;22;20020;-79
2023/05/10 00:09:40;;;;;;;21.15;15.45;;;;;;;12.50;100.00;100886.03;6248457;22;20040;-79
2023/05/10 00:12:07;;;;;;;27.90;17.85;;;;;;;12.49;100.00;100882.63;6249342;22;20489;-80
2023/05/10 00:14:33;;;;;;;28.05;17.02;;;;;;;12.48;100.00;100875.81;6249387;22;20013;-80
2023/05/10 00:17:00;;;;;;;26.20;16.98;;;;;;;12.48;100.00;100877.75;6249385;22;20502;-79
2023/05/10 00:19:26;;;;;;;27.20;18.85;;;;;;;12.48;100.00;100875.06;6247986;22;20347;-78
2023/05/10 00:21:53;;;;;;;28.98;18.67;;;;;;;12.46;100.00;100874.78;6249077;22;20092;-79
2023/05/10 00:24:19;;;;;;;31.15;19.38;;;;;;;12.45;100.00;100875.97;6247653;22;20024;-80
2023/05/10 00:26:46;;;;;;;28.42;18.40;;;;;;;12.46;100.00;100872.09;6249566;22;20461;-79
2023/05/10 00:29:12;;;;;;;28.23;18.45;;;;;;;12.46;100.00;100880.84;6249079;22;20092;-79
2023/05/10 00:31:39;;;;;;;35.08;20.73;;;;;;;12.45;100.00;100875.97;6247646;22;20547;-79
2023/05/10 00:34:05;;;;;;;38.15;20.75;;;;;;;12.42;100.00;100872.25;6247589;22;20021;-79
2023/05/10 00:36:32;;;;;;;32.00;19.63;;;;;;;12.42;100.00;100866.19;6248900;22;20478;-79
2023/05/10 00:38:59;;;;;;;34.95;21.02;;;;;;;12.44;100.00;100877.16;6247547;22;20483;-79
2023/05/10 00:41:25;;;;;;;31.58;20.70;;;;;;;12.43;100.00;100873.75;6249126;22;20027;-79
2023/05/10 00:43:53;;;;;;;37.95;22.80;;;;;;;12.44;100.00;100877.91;6247825;22;20071;-79
2023/05/10 00:46:20;;;;;;;40.42;22.77;;;;;;;12.45;100.00;100878.63;6247098;22;20016;-79
2023/05/10 00:48:47;;;;;;;42.83;23.48;;;;;;;12.41;100.00;100865.44;6249604;22;20009;-79
2023/05/10 00:51:13;;;;;;;36.40;23.00;;;;;;;12.38;100.00;100869.03;6272069;22;20032;-80
2023/05/10 00:53:40;;;;;;;42.78;23.27;;;;;;;12.37;100.00;100875.56;6249136;22;20078;-79
2023/05/10 00:56:07;;;;;;;40.05;24.52;;;;;;;12.36;100.00;100876.75;6222124;22;20024;-79
2023/05/10 00:58:34;;;;;;;43.00;23.48;;;;;;;12.37;100.00;100872.88;6247165;22;20017;-79
2023/05/10 01:01:01;;;;;;;43.75;24.63;;;;;;;12.36;100.00;100876.75;6247122;22;20027;-79
2023/05/10 01:03:27;;;;;;;41.22;24.92;;;;;;;12.33;100.00;100875.72;6247446;22;20091;-79
2023/05/10 01:05:55;;;;;;;45.33;25.15;;;;;;;12.34;100.00;100876.44;6247163;22;20933;-78
2023/05/10 01:08:21;;;;;;;47.08;25.67;;;;;;;12.33;100.00;100874.97;6221999;22;20027;-79
2023/05/10 01:10:49;;;;;;;46.17;25.02;;;;;;;12.33;100.00;100875.72;6247522;22;20099;-78
2023/05/10 01:13:29;;;;;;;42.13;23.15;;;;;;;12.35;100.00;100878.66;6272347;22;20017;-79
2023/05/10 01:15:56;;;;;;;44.13;23.27;;;;;;;12.33;100.00;100874.97;6247507;22;20021;-79
2023/05/10 01:18:24;;;;;;;43.88;24.75;;;;;;;12.33;100.00;100881.03;6272264;22;20024;-79
2023/05/10 01:21:19;;;;;;;46.03;24.60;;;;;;;12.32;100.00;100884.91;6249312;22;20494;-79
2023/05/10 01:23:56;;;;;;;40.55;22.75;;;;;;;12.31;100.00;100877.34;6249594;22;20016;-79
2023/05/10 01:26:47;;;;;;;41.28;23.42;;;;;;;12.30;100.00;100879.28;6248955;22;20393;-79
2023/05/10 01:29:36;;;;;;;45.50;23.95;;;;;;;12.30;100.00;100879.28;6248213;22;20319;-78
2023/05/10 01:32:06;;;;;;;42.90;23.73;;;;;;;12.28;100.00;100872.91;6248707;22;20020;-79
2023/05/10 01:34:59;;;;;;;44.47;23.15;;;;;;;12.24;100.00;100875.72;6248277;22;20603;-79
2023/05/10 01:37:36;;;;;;;41.83;24.23;;;;;;;12.24;100.00;100877.66;6231855;22;20071;-79
2023/05/10 01:40:13;;;;;;;51.20;24.20;;;;;;;12.22;100.00;100870.09;6272887;22;20408;-78
2023/05/10 01:42:47;;;;;;;51.70;25.33;;;;;;;12.22;100.00;100878.09;6249102;22;20052;-78
2023/05/10 01:45:46;;;;;;;44.85;23.85;;;;;;;12.23;100.00;100879.56;6246753;22;20023;-80
2023/05/10 01:48:14;;;;;;;46.35;23.23;;;;;;;12.23;100.00;100886.84;6247935;22;20071;-80
2023/05/10 01:50:43;;;;;;;48.40;23.23;;;;;;;12.24;100.00;100886.41;6272717;22;20071;-80
2023/05/10 01:53:12;;;;;;;49.83;25.45;;;;;;;12.24;100.00;100881.06;6272241;22;20059;-78
2023/05/10 01:55:52;;;;;;;45.85;24.63;;;;;;;12.25;100.00;100881.78;6248873;22;20024;-79
2023/05/10 01:58:31;;;;;;;52.25;25.80;;;;;;;12.26;100.00;100875.28;6248454;22;20071;-79
2023/05/10 02:01:01;;;;;;;45.03;24.50;;;;;;;12.26;100.00;100881.34;6246990;22;20036;-79
2023/05/10 02:03:29;;;;;;;45.03;24.90;;;;;;;12.23;100.00;100881.50;6247828;22;20035;-79
2023/05/10 02:05:57;;;;;;;47.05;25.25;;;;;;;12.21;100.00;100884.63;6272274;22;20020;-79
2023/05/10 02:08:24;;;;;;;52.60;26.40;;;;;;;12.20;100.00;100883.13;6247708;22;20074;-79
2023/05/10 02:10:56;;;;;;;45.40;25.05;;;;;;;12.23;100.00;100884.91;6250336;22;20024;-79
2023/05/10 02:13:24;;;;;;;49.55;26.05;;;;;;;12.22;100.00;100878.09;6248681;22;20116;-79
2023/05/10 02:15:53;;;;;;;47.67;25.17;;;;;;;12.22;100.00;100883.44;6223085;22;20103;-79
2023/05/10 02:18:23;;;;;;;50.60;26.08;;;;;;;12.22;100.00;100888.03;6249080;22;20023;-79
2023/05/10 02:20:51;;;;;;;51.83;25.27;;;;;;;12.22;100.00;100888.78;6273808;22;20467;-79
2023/05/10 02:23:18;;;;;;;51.60;24.70;;;;;;;12.23;100.00;100890.25;6222538;22;20036;-80
2023/05/10 02:25:47;;;;;;;46.90;26.35;;;;;;;12.24;100.00;100885.66;6248663;22;20020;-79
2023/05/10 02:28:15;;;;;;;48.30;24.70;;;;;;;12.24;100.00;100891.72;6247868;22;20051;-79
2023/05/10 02:30:42;;;;;;;47.05;25.25;;;;;;;12.22;100.00;100894.09;6223368;22;20473;-79
2023/05/10 02:33:11;;;;;;;54.72;26.80;;;;;;;12.19;100.00;100895.00;6222271;22;20403;-79
2023/05/10 02:35:38;;;;;;;57.45;26.33;;;;;;;12.15;100.00;100905.06;6223481;22;20020;-79
2023/05/10 02:38:07;;;;;;;49.60;25.70;;;;;;;12.13;100.00;100899.44;6248256;22;20021;-79
2023/05/10 02:40:35;;;;;;;54.38;26.38;;;;;;;12.12;100.00;100897.22;6223011;22;20570;-79
2023/05/10 02:43:02;;;;;;;50.13;25.20;;;;;;;12.12;100.00;100905.22;6249994;22;20020;-79
2023/05/10 02:45:32;;;;;;;52.22;26.30;;;;;;;12.13;100.00;100920.06;6247693;22;20021;-79
2023/05/10 02:47:59;;;;;;;53.20;25.77;;;;;;;12.11;100.00;100915.16;6273680;22;20021;-79
2023/05/10 02:50:29;;;;;;;50.58;25.88;;;;;;;12.13;100.00;100906.72;6249910;22;20091;-81
2023/05/10 02:53:01;;;;;;;54.03;25.77;;;;;;;12.12;100.00;100913.97;6223235;22;20466;-81
2023/05/10 02:55:35;;;;;;;59.20;28.30;;;;;;;12.10;100.00;100910.25;6250166;22;20016;-81
2023/05/10 02:58:03;;;;;;;52.10;26.30;;;;;;;12.03;100.00;100912.03;6248392;22;20021;-81
2023/05/10 03:00:29;;;;;;;52.63;26.05;;;;;;;11.99;100.00;100914.13;6249618;22;20017;-81
2023/05/10 03:02:56;;;;;;;57.78;28.48;;;;;;;11.91;100.00;100914.88;6248309;22;20083;-81
2023/05/10 03:05:24;;;;;;;60.58;27.98;;;;;;;11.89;100.00;100923.31;6222997;22;20020;-80
2023/05/10 03:07:52;;;;;;;58.67;28.65;;;;;;;11.88;100.00;100926.44;6248879;22;20450;-81
2023/05/10 03:10:20;;;;;;;65.28;30.60;;;;;;;11.86;100.00;100921.53;6273596;22;20061;-81
2023/05/10 03:13:35;;;;;;;62.25;30.00;;;;;;;11.81;100.00;100919.44;6248642;22;20087;-80
2023/05/10 03:16:15;;;;;;;73.57;30.45;;;;;;;11.78;100.00;100924.94;6160831;23;20462;-80
2023/05/10 03:18:47;;;;;;;64.60;29.02;;;;;;;11.78;100.00;100917.66;6162051;23;20451;-81
2023/05/10 03:21:17;;;;;;;70.68;29.70;;;;;;;11.77;100.00;100926.84;6161030;23;20073;-80
2023/05/10 03:23:47;;;;;;;;;;;;;;;11.79;100.00;100931.75;6162238;23;20021;-80
2023/05/10 03:26:20;;;;;;;63.42;27.48;;;;;;;11.76;100.00;100929.94;6160734;23;19920;-80
2023/05/10 03:28:49;;;;;;;68.88;29.60;;;;;;;11.75;100.00;100928.44;6161630;23;20026;-80
2023/05/10 03:31:17;;;;;;;71.90;29.80;;;;;;;11.74;100.00;100930.38;6160284;23;20093;-80
2023/05/10 03:33:48;;;;;;;64.18;28.92;;;;;;;11.75;100.00;100934.53;6186625;23;20077;-80
2023/05/10 03:36:17;;;;;;;69.47;29.67;;;;;;;11.73;100.00;100936.16;6160934;23;20085;-80
2023/05/10 03:38:44;;;;;;;68.68;28.92;;;;;;;11.72;100.00;100930.06;6161939;23;20147;-80
2023/05/10 03:41:11;;;;;;;71.53;29.80;;;;;;;11.74;100.00;100937.63;6186435;23;20024;-80
2023/05/10 03:43:38;;;;;;;76.68;29.95;;;;;;;11.73;100.00;100926.22;6185826;23;20158;-80
2023/05/10 03:46:05;;;;;;;69.43;28.65;;;;;;;11.73;100.00;100923.56;6161323;23;20028;-80
2023/05/10 03:48:33;;;;;;;72.35;30.05;;;;;;;11.74;100.00;100927.69;6161260;23;20045;-80
2023/05/10 03:50:59;;;;;;;69.97;29.08;;;;;;;11.78;100.00;100927.59;6243729;22;20016;-80
2023/05/10 03:53:26;;;;;;;66.93;28.40;;;;;;;11.80;100.00;100927.91;6248005;22;20024;-81
2023/05/10 03:55:53;;;;;;;74.90;29.92;;;;;;;11.81;100.00;100932.03;6248725;22;20127;-80
2023/05/10 03:58:20;;;;;;;67.38;29.80;;;;;;;11.78;100.00;100930.25;6247158;22;20021;-80
2023/05/10 04:00:46;;;;;;;68.78;29.15;;;;;;;11.80;100.00;100933.22;6248970;22;20017;-80
2023/05/10 04:03:14;;;;;;;72.40;29.73;;;;;;;11.78;100.00;100928.34;6222233;22;20083;-80
2023/05/10 04:05:40;;;;;;;70.68;27.25;;;;;;;11.77;100.00;100937.50;6248720;22;20017;-81
2023/05/10 04:08:07;;;;;;;67.78;29.38;;;;;;;11.76;100.00;100930.66;6248462;22;20012;-80
2023/05/10 04:10:34;;;;;;;65.78;27.70;;;;;;;11.76;100.00;100932.59;6248551;22;20189;-80
2023/05/10 04:13:00;;;;;;;66.55;27.95;;;;;;;11.76;100.00;100940.59;6247712;22;20367;-80
2023/05/10 04:15:27;;;;;;;69.53;28.27;;;;;;;11.75;100.00;100941.78;6249916;22;20016;-81
2023/05/10 04:17:53;;;;;;;69.25;29.00;;;;;;;11.75;100.00;100942.53;6250473;22;20116;-80
2023/05/10 04:20:20;;;;;;;64.93;27.90;;;;;;;11.76;100.00;100940.59;6249318;22;20087;-79
2023/05/10 04:22:47;;;;;;;63.67;26.88;;;;;;;11.76;100.00;100941.34;6273603;22;20095;-79
2023/05/10 04:25:13;;;;;;;63.08;27.90;;;;;;;11.76;100.00;100937.94;6222134;22;20017;-78
2023/05/10 04:27:40;;;;;;;58.72;26.65;;;;;;;11.77;100.00;100942.09;6221868;22;20021;-79
2023/05/10 04:30:07;;;;;;;58.97;26.60;;;;;;;11.78;100.00;100935.59;6247235;22;20017;-79
2023/05/10 04:32:33;;;;;;;59.08;25.83;;;;;;;11.77;100.00;100936.78;6249604;22;20021;-80
2023/05/10 04:35:02;;;;;;;62.30;26.00;;;;;;;11.79;100.00;100943.16;6247785;22;20481;-79
2023/05/10 04:37:29;;;;;;;61.95;27.27;;;;;;;11.79;100.00;100935.16;6249792;22;20103;-79
2023/05/10 04:39:55;;;;;;;68.20;27.02;;;;;;;11.75;100.00;100937.19;6250095;22;20253;-80
2023/05/10 04:42:22;;;;;;;63.75;26.58;;;;;;;11.76;100.00;100945.94;6248762;22;20378;-80
2023/05/10 04:44:49;;;;;;;60.38;25.95;;;;;;;11.77;100.00;100945.53;6249998;22;20074;-80
2023/05/10 04:47:16;;;;;;;64.93;27.00;;;;;;;11.76;100.00;100941.34;6249435;22;20019;-80
2023/05/10 04:49:42;;;;;;;66.32;26.85;;;;;;;11.77;100.00;100947.44;6249741;22;20020;-80
2023/05/10 04:52:09;;;;;;;69.50;28.38;;;;;;;11.78;100.00;100949.66;6249435;22;20017;-80
2023/05/10 04:54:35;;;;;;;62.78;27.05;;;;;;;11.80;100.00;100951.91;6249307;22;20023;-79
2023/05/10 04:57:02;;;;;;;72.10;28.23;;;;;;;11.82;100.00;100957.53;6248703;22;20024;-79
2023/05/10 04:59:28;;;;;;;61.50;26.92;;;;;;;11.79;100.00;100956.50;6247702;22;20022;-79
2023/05/10 05:01:55;;;;;;;79.70;29.30;;;;;;;11.80;100.00;100957.22;6249613;22;20023;-80
2023/05/10 05:04:23;;;;;;;67.80;27.90;;;;;;;11.84;100.00;100960.50;6247739;22;20067;-80
2023/05/10 05:06:49;;;;;;;67.10;28.35;;;;;;;11.87;100.00;100962.28;6247885;22;20047;-79
2023/05/10 05:09:19;;;;;;;70.20;29.73;;;;;;;11.87;100.00;100963.03;6247645;22;20434;-79
2023/05/10 05:11:46;;;;;;;76.65;28.92;;;;;;;11.88;100.00;100966.44;6249067;22;20023;-79
2023/05/10 05:14:12;;;;;;;64.72;27.73;;;;;;;11.91;100.00;100974.31;6248553;22;20420;-79
2023/05/10 05:16:39;;;;;;;69.25;27.90;;;;;;;11.92;100.00;100972.38;6249534;22;20067;-79
2023/05/10 05:19:05;;;;;;;64.45;28.15;;;;;;;11.90;100.00;100978.16;6249233;22;20012;-79
2023/05/10 05:21:32;;;;;;;75.30;28.88;;;;;;;11.91;100.00;100976.97;6249384;22;20020;-79
2023/05/10 05:23:58;;;;;;;67.57;28.80;;;;;;;11.91;100.00;100976.97;6249174;22;20017;-79
2023/05/10 05:26:26;;;;;;;71.80;29.80;;;;;;;11.94;100.00;100980.69;6248794;22;20023;-79
2023/05/10 05:28:54;;;;;;;66.38;28.38;;;;;;;11.94;100.00;100978.75;6248846;22;20431;-79
2023/05/10 05:31:21;;;;;;;70.05;29.60;;;;;;;11.92;100.00;100978.44;6247115;22;20021;-79
2023/05/10 05:33:47;;;;;;;67.78;29.92;;;;;;;11.95;100.00;100987.50;6249702;22;20017;-79
2023/05/10 05:36:14;;;;;;;79.93;31.70;;;;;;;11.97;100.00;100987.81;6248731;22;20017;-79
2023/05/10 05:38:40;;;;;;;69.30;30.17;;;;;;;11.96;100.00;100992.41;6249257;22;20439;-79
2023/05/10 05:41:07;;;;;;;71.50;30.02;;;;;;;11.95;100.00;100996.25;6248607;22;20067;-79
2023/05/10 05:43:34;;;;;;;59.97;27.80;;;;;;;11.97;100.00;100993.13;6249978;22;20024;-79
2023/05/10 05:46:03;;;;;;;67.43;27.52;;;;;;;11.96;100.00;100994.31;6248970;22;20409;-79
2023/05/10 05:48:31;;;;;;;60.17;27.23;;;;;;;11.97;100.00;100998.47;6250387;22;20012;-79
2023/05/10 05:50:57;;;;;;;55.90;26.77;;;;;;;11.95;100.00;100998.16;6249392;22;20079;-79
2023/05/10 05:53:24;;;;;;;60.28;28.40;;;;;;;11.95;100.00;100996.25;6251010;22;20020;-78
2023/05/10 05:55:53;;;;;;;60.08;26.90;;;;;;;11.95;100.00;101003.50;6251104;22;20017;-79
2023/05/10 05:58:20;;;;;;;58.17;27.67;;;;;;;11.96;100.00;101003.06;6249700;22;20423;-79
2023/05/10 06:00:46;;;;;;;61.78;28.05;;;;;;;11.97;100.00;101004.56;6249807;22;20025;-79
2023/05/10 06:03:13;;;;;;;51.13;25.25;;;;;;;11.94;100.00;101012.69;6250953;22;20047;-79
2023/05/10 06:05:39;;;;;;;54.10;23.38;;;;;;;11.90;100.00;101012.09;6251582;22;20016;-79
2023/05/10 06:08:06;;;;;;;44.92;22.77;;;;;;;11.85;100.00;101015.34;6250907;22;20016;-79
2023/05/10 06:10:32;;;;;;;42.42;23.88;;;;;;;11.84;100.00;101014.59;6274325;22;20147;-79
2023/05/10 06:12:59;;;;;;;53.63;24.35;;;;;;;11.87;100.00;101016.38;6249271;22;20016;-78
2023/05/10 06:15:26;;;;;;;47.72;23.77;;;;;;;11.90;100.00;101020.84;6251192;22;20116;-78
2023/05/10 06:17:53;;;;;;;57.17;26.13;;;;;;;11.87;100.00;101018.31;6251006;22;20012;-80
2023/05/10 06:20:19;;;;;;;49.50;25.45;;;;;;;11.88;100.00;101028.53;6250603;22;20024;-79
2023/05/10 06:22:46;;;;;;;56.03;24.67;;;;;;;11.90;100.00;101028.84;6249372;22;20067;-78
2023/05/10 06:25:14;;;;;;;50.35;23.27;;;;;;;11.91;100.00;101030.31;6248778;22;20087;-79
2023/05/10 06:27:40;;;;;;;50.13;24.38;;;;;;;11.93;100.00;101035.22;6249131;22;20016;-78
2023/05/10 06:30:08;;;;;;;45.78;22.13;;;;;;;11.95;100.00;101027.50;6223715;22;20024;-79
2023/05/10 06:32:39;;;;;;;;;;;;;;;11.98;100.00;101029.31;6251621;22;20018;-79
2023/05/10 06:35:06;;;;;;;42.33;20.85;;;;;;;11.97;100.00;101027.81;6249141;22;19924;-79
2023/05/10 06:37:33;;;;;;;46.80;22.05;;;;;;;12.03;100.00;101024.09;6248786;22;20068;-79
2023/05/10 06:40:00;;;;;;;35.50;19.55;;;;;;;12.05;100.00;101022.91;6250798;22;20024;-79
2023/05/10 06:42:27;;;;;;;40.50;19.85;;;;;;;12.03;100.00;101031.38;6251280;22;20068;-79
2023/05/10 06:44:53;;;;;;;41.45;20.08;;;;;;;12.09;100.00;101032.28;6249133;22;20044;-77
2023/05/10 06:47:20;;;;;;;35.17;18.15;;;;;;;12.11;100.00;101039.84;6250459;22;20017;-79
2023/05/10 06:49:46;;;;;;;39.30;20.73;;;;;;;12.13;100.00;101040.88;6249443;22;20509;-80
2023/05/10 06:52:13;;;;;;;41.88;20.40;;;;;;;12.16;100.00;101040.00;6248440;22;20017;-81
2023/05/10 06:54:39;;;;;;;31.90;18.40;;;;;;;12.17;100.00;101041.47;6248867;22;20013;-78
2023/05/10 06:57:06;;;;;;;40.15;18.58;;;;;;;12.16;100.00;101048.00;6248283;22;20441;-81
2023/05/10 06:59:49;;;;;;;34.03;16.63;;;;;;;12.16;100.00;101053.34;6227509;22;20096;-78
2023/05/10 07:02:15;;;;;;;34.28;14.63;;;;;;;12.14;100.00;101052.28;6250438;22;20020;-78
2023/05/10 07:04:42;;;;;;;24.60;14.80;;;;;;;12.20;100.00;101055.88;6250807;22;20017;-78
2023/05/10 07:07:08;;;;;;;22.80;14.00;;;;;;;12.18;100.00;101050.97;6222813;22;20020;-77
2023/05/10 07:09:35;;;;;;;24.25;14.82;;;;;;;12.23;100.00;101057.66;6251015;22;20051;-77
2023/05/10 07:12:01;;;;;;;19.75;12.77;;;;;;;12.21;100.00;101055.44;6250479;22;20394;-77
2023/05/10 07:14:28;;;;;;;20.85;12.18;;;;;;;12.24;100.00;101062.56;6251058;22;20439;-79
2023/05/10 07:16:55;;;;;;;19.92;11.65;;;;;;;12.29;100.00;101072.66;6223775;22;20418;-79
2023/05/10 07:19:21;;;;;;;19.45;11.50;;;;;;;12.33;100.00;101067.16;6250810;22;20016;-79
2023/05/10 07:21:48;;;;;;;17.23;10.98;;;;;;;12.39;100.00;101070.75;6248486;22;20454;-79
2023/05/10 07:24:14;;;;;;;14.10;10.02;;;;;;;12.40;100.00;101071.47;6250370;22;20024;-80
2023/05/10 07:26:41;;;;;;;17.70;10.30;;;;;;;12.41;100.00;101065.66;6250711;22;20017;-79
2023/05/10 07:29:07;;;;;;;13.73;9.93;;;;;;;12.42;100.00;101069.81;6250438;22;20473;-81
2023/05/10 07:31:34;;;;;;;13.63;9.65;;;;;;;12.44;100.00;101074.72;6249498;22;20088;-78
2023/05/10 07:34:00;;;;;;;15.63;9.73;;;;;;;12.42;100.00;101077.84;6250602;22;20461;-78
2023/05/10 07:36:27;;;;;;;15.43;10.13;;;;;;;12.42;100.00;101082.44;6250090;22;20067;-79
2023/05/10 07:38:54;;;;;;;14.15;9.75;;;;;;;12.48;100.00;101086.00;6223458;22;20031;-78
2023/05/10 07:41:20;;;;;;;21.38;10.82;;;;;;;12.57;100.00;101086.03;6248566;22;20013;-77
2023/05/10 07:43:47;;;;;;;12.98;10.00;;;;;;;12.64;100.00;101091.81;6250231;22;20099;-78
2023/05/10 07:46:14;;;;;;;14.75;9.98;;;;;;;12.71;100.00;101101.47;6250006;22;20280;-78
2023/05/10 07:48:41;;;;;;;15.20;9.25;;;;;;;12.80;100.00;101098.78;6250423;22;20024;-79
2023/05/10 07:51:09;;;;;;;14.10;8.77;;;;;;;12.81;100.00;101097.59;6247895;22;20108;-78
2023/05/10 07:53:35;;;;;;;14.25;9.35;;;;;;;12.84;100.00;101099.38;6250106;22;20386;-79
2023/05/10 07:56:24;;;;;;;14.40;8.88;;;;;;;12.95;100.00;101106.94;6250173;22;20019;-78
2023/05/10 07:58:51;;;;;;;14.25;9.82;;;;;;;13.02;100.00;101104.72;6250474;22;20040;-78
2023/05/10 08:01:18;;;;;;;11.43;9.02;;;;;;;13.04;100.00;101104.28;6250071;22;20013;-78
2023/05/10 08:03:44;;;;;;;12.43;9.55;;;;;;;13.02;100.00;101106.66;6250216;22;20469;-78
2023/05/10 08:06:11;;;;;;;12.45;8.65;;;;;;;13.01;100.00;101118.53;6248739;22;20369;-80
2023/05/10 08:08:38;;;;;;;13.23;8.45;;;;;;;12.98;100.00;101117.47;6250742;22;20020;-79
2023/05/10 08:11:07;;;;;;;12.90;8.98;;;;;;;12.93;100.00;101122.69;6250653;22;20448;-79
2023/05/10 08:13:34;;;;;;;12.85;8.35;;;;;;;12.96;100.00;101119.84;6250002;22;20049;-79
2023/05/10 08:16:01;;;;;;;9.95;8.73;;;;;;;12.96;100.00;101127.88;6249721;22;20023;-78
2023/05/10 08:18:28;;;;;;;12.93;9.10;;;;;;;12.93;100.00;101125.34;6250311;22;20451;-78
2023/05/10 08:20:54;;;;;;;13.80;8.98;;;;;;;12.90;100.00;101128.91;6247954;22;20029;-79
2023/05/10 08:23:21;;;;;;;14.15;9.82;;;;;;;12.88;100.00;101132.03;6250245;22;20016;-80
2023/05/10 08:25:47;;;;;;;12.75;9.38;;;;;;;12.91;100.00;101130.41;6250562;22;20461;-80
2023/05/10 08:28:14;;;;;;;11.50;9.38;;;;;;;12.98;100.00;101127.44;6249824;22;20442;-79
2023/05/10 08:30:40;;;;;;;12.32;9.18;;;;;;;13.12;100.00;101131.44;6250390;22;20017;-80
2023/05/10 08:33:07;;;;;;;14.98;10.70;;;;;;;13.15;100.00;101133.97;6249836;22;20012;-79
2023/05/10 08:35:34;;;;;;;15.15;10.30;;;;;;;13.15;100.00;101136.63;6249141;22;20020;-78
2023/05/10 08:38:01;;;;;;;14.55;11.43;;;;;;;13.16;100.00;101145.44;6250005;22;20017;-79
2023/05/10 08:40:28;;;;;;;13.90;10.15;;;;;;;13.16;100.00;101142.75;6247494;22;20017;-79
2023/05/10 08:43:01;;;;;;;15.00;10.77;;;;;;;13.21;100.00;101150.16;6250030;22;20016;-79
2023/05/10 08:45:32;;;;;;;17.17;10.43;;;;;;;13.22;100.00;101154.31;6250256;22;20023;-79
2023/05/10 08:48:05;;;;;;;15.02;10.35;;;;;;;13.30;100.00;101155.50;6249402;22;20118;-79
2023/05/10 08:50:45;;;;;;;18.52;10.57;;;;;;;13.25;100.00;101156.84;6250457;22;20428;-79
2023/05/10 08:53:16;;;;;;;15.52;10.95;;;;;;;13.27;100.00;101162.47;6247441;22;20466;-78
2023/05/10 08:55:42;;;;;;;14.07;10.38;;;;;;;13.29;100.00;101165.44;6250248;22;20017;-79
2023/05/10 08:58:09;;;;;;;15.15;10.43;;;;;;;13.33;99.79;101160.69;6247981;22;20021;-79
2023/05/10 09:00:39;;;;;;;15.48;10.35;;;;;;;13.42;100.00;101165.28;6250381;22;20450;-80
2023/05/10 09:03:06;;;;;;;13.05;9.73;;;;;;;13.48;98.21;101165.44;6249663;22;20096;-80
2023/05/10 09:05:33;;;;;;;16.52;10.30;;;;;;;13.62;98.21;101164.78;6250452;22;20021;-79
2023/05/10 09:08:02;;;;;;;15.85;10.43;;;;;;;13.82;99.09;101169.66;6273893;22;20064;-79
2023/05/10 09:10:30;;;;;;;13.52;9.43;;;;;;;13.91;97.26;101164.28;6248797;22;20064;-79
2023/05/10 09:12:57;;;;;;;13.35;10.00;;;;;;;13.98;98.01;101164.69;6250090;22;20489;-81
2023/05/10 09:15:25;;;;;;;12.52;9.02;;;;;;;14.15;96.16;101170.41;6250138;22;20036;-79
2023/05/10 09:17:52;;;;;;;12.25;8.82;;;;;;;14.30;95.61;101165.13;6250636;22;20100;-79
2023/05/10 09:20:19;;;;;;;9.95;8.15;;;;;;;14.45;93.20;101167.91;6251001;22;20450;-79
2023/05/10 09:22:45;;;;;;;9.32;7.50;;;;;;;14.52;92.42;101178.28;6251245;22;20063;-79
2023/05/10 09:25:14;;;;;;;11.02;7.32;;;;;;;14.62;93.43;101171.69;6250890;22;20013;-80
2023/05/10 09:27:45;;;;;;;10.38;7.32;;;;;;;14.76;93.35;101176.34;6251563;22;20021;-80
2023/05/10 09:30:17;;;;;;;9.13;7.43;;;;;;;15.07;91.77;101175.97;6251301;22;20036;-79
2023/05/10 09:32:47;;;;;;;11.32;7.30;;;;;;;15.36;91.50;101172.56;6250896;22;20423;-81
2023/05/10 09:35:16;;;;;;;7.53;6.82;;;;;;;15.43;87.16;101176.84;6251115;22;20017;-80
2023/05/10 09:37:47;;;;;;;8.35;6.88;;;;;;;15.64;87.73;101176.47;6251489;22;20017;-82
2023/05/10 09:40:19;;;;;;;7.47;6.77;;;;;;;15.77;87.17;101184.25;6251354;22;20516;-81
2023/05/10 09:43:03;;;;;;;6.75;6.05;;;;;;;15.73;86.43;101191.75;6251921;22;20039;-80
2023/05/10 09:45:33;;;;;;;8.23;6.43;;;;;;;15.77;86.05;101192.31;6251574;22;20017;-80
2023/05/10 09:48:03;;;;;;;6.53;5.85;;;;;;;15.91;86.68;101196.19;6250761;22;20017;-81
2023/05/10 09:50:30;;;;;;;7.47;6.05;;;;;;;16.04;87.98;101196.59;6249929;22;20016;-82
2023/05/10 09:52:58;;;;;;;6.78;5.65;;;;;;;16.06;87.15;101196.88;6249762;22;20426;-81
2023/05/10 09:55:38;;;;;;;6.03;5.03;;;;;;;15.96;85.05;101203.59;6251082;22;20095;-83
2023/05/10 09:58:09;;;;;;;6.40;5.20;;;;;;;15.89;86.46;101204.69;6251476;22;20048;-78
2023/05/10 10:00:37;;;;;;;5.43;4.93;;;;;;;15.85;86.17;101206.84;6251230;22;20509;-81
2023/05/10 10:03:04;;;;;;;4.82;4.43;;;;;;;15.75;84.08;101210.81;6251129;22;20411;-80
2023/05/10 10:05:35;;;;;;;5.70;4.82;;;;;;;15.57;83.79;101211.75;6251324;22;20024;-81
2023/05/10 10:08:05;;;;;;;5.05;4.45;;;;;;;15.44;83.43;101205.13;6249637;22;20513;-80
2023/05/10 10:10:33;;;;;;;5.25;4.75;;;;;;;15.38;83.82;101218.44;6249817;22;20379;-79
2023/05/10 10:13:02;;;;;;;5.22;4.75;;;;;;;15.48;84.62;101217.16;6251132;22;20020;-82
2023/05/10 10:15:29;;;;;;;6.50;4.80;;;;;;;15.62;85.27;101218.41;6251057;22;20017;-82
2023/05/10 10:17:55;;;;;;;7.68;5.22;;;;;;;15.67;84.72;101217.75;6251295;22;20016;-81
2023/05/10 10:20:23;;;;;;;5.30;4.82;;;;;;;15.78;85.29;101222.56;6251772;22;20071;-80
2023/05/10 10:22:49;;;;;;;6.82;5.57;;;;;;;15.80;84.18;101212.84;6251909;22;20017;-81
2023/05/10 10:25:18;;;;;;;6.78;5.72;;;;;;;15.84;84.33;101220.72;6251006;22;20084;-81
2023/05/10 10:27:51;;;;;;;7.75;6.25;;;;;;;15.80;83.83;101225.53;6250807;22;20455;-86
2023/05/10 10:30:31;;;;;;;6.60;6.00;;;;;;;15.71;82.39;101220.25;6250863;22;20071;-79
2023/05/10 10:33:10;;;;;;;7.07;6.38;;;;;;;15.73;82.05;101229.31;6251233;22;20016;-84
2023/05/10 10:35:55;;;;;;;10.50;6.28;;;;;;;15.76;82.65;101223.03;6251315;22;20107;-83
2023/05/10 10:38:22;;;;;;;6.75;6.10;;;;;;;15.71;83.32;101228.31;6251257;22;20402;-80
2023/05/10 10:41:02;;;;;;;8.00;6.60;;;;;;;15.77;83.56;101229.88;6251628;22;20451;-82
2023/05/10 10:43:29;;;;;;;7.88;6.95;;;;;;;15.81;83.35;101227.75;6251076;22;20152;-85
2023/05/10 10:46:18;;;;;;;7.30;6.22;;;;;;;15.90;84.00;101224.22;6250787;22;20075;-84
2023/05/10 10:48:51;;;;;;;6.43;5.82;;;;;;;15.88;81.08;101226.66;6251690;22;20020;-80
2023/05/10 10:51:18;;;;;;;6.47;5.65;;;;;;;15.83;81.08;101229.97;6251525;22;20458;-80
2023/05/10 10:53:47;;;;;;;10.45;5.47;;;;;;;15.77;81.98;101226.47;6251573;22;20346;-81
2023/05/10 10:56:15;;;;;;;6.22;5.63;;;;;;;15.85;82.13;101224.88;6258546;22;20112;-86
2023/05/10 10:58:53;;;;;;;7.18;6.40;;;;;;;15.89;82.21;101225.44;6262250;22;20027;-85
2023/05/10 11:01:20;;;;;;;6.18;5.53;;;;;;;16.04;84.27;101222.72;6254406;22;20017;-87
2023/05/10 11:04:05;;;;;;;6.43;5.72;;;;;;;16.25;82.36;101230.38;6225628;22;20016;-84
2023/05/10 11:06:33;;;;;;;6.10;5.32;;;;;;;16.33;82.54;101228.06;6251702;22;20017;-86
2023/05/10 11:09:12;;;;;;;7.10;5.50;;;;;;;16.14;81.07;101230.22;6251527;22;20017;-85
2023/05/10 11:11:54;;;;;;;6.03;5.50;;;;;;;16.06;82.38;101226.44;6251932;22;20442;-85
2023/05/10 11:14:22;;;;;;;5.65;5.13;;;;;;;16.02;82.06;101234.66;6251187;22;20047;-82
2023/05/10 11:16:49;;;;;;;6.45;5.82;;;;;;;15.92;81.11;101227.19;6251122;22;20024;-81